Flight Track Log - Related Links

Times and Time Zones

All times are in EDT time to prevent confusion due to time zone crossing. See the AWE1600 flight status page for this flight to view local times or setup timezone preferences in your user account.

Time Position Orientation Groundspeed Altitude Reporting Facility
EDT Latitude Longitude Course Direction KTS MPH feet Rate Location/Type
Fri 07:08:01 AM 41.9478 -72.6997 180° South 143 165 1,200  Level Boston Center
Fri 07:09:16 AM 41.9708 -72.6300 66° East 151 174 4,000 2,756 Climbing Boston Center
Fri 07:10:00 AM 41.6988 -72.5667 180° South  Level FlightAware Approximate
Fri 07:10:16 AM 41.9106 -72.5908 154° Southeast 163 188 7,400  Level Boston Center
Fri 07:11:00 AM 41.6244 -72.5199 132° Southeast  Level FlightAware Approximate
Fri 07:11:28 AM 41.8439 -72.5486 155° Southeast 238 274 10,800  Level Boston Center
Fri 07:12:00 AM 41.5676 -72.4347 132° Southeast  Level FlightAware Approximate
Fri 07:12:28 AM 41.7439 -72.4903 156° South 316 364 13,300  Level Boston Center
Fri 07:13:00 AM 41.5127 -72.3500 180° South  Level FlightAware Approximate
Fri 07:13:28 AM 41.6583 -72.4400 156° South 363 418 16,500  Level Boston Center
Fri 07:14:28 AM 41.5583 -72.4233 173° South 369 425 18,700 2,400 Climbing Boston Center
Fri 07:15:28 AM 41.4417 -72.4261 181° South 375 432 21,300 1,650 Climbing Boston Center
Fri 07:16:28 AM 41.3292 -72.4289 181° South 386 444 22,000 850 Climbing Boston Center
Fri 07:17:28 AM 41.2353 -72.4733 200° South 401 461 23,000 1,000 Climbing Boston Center
Fri 07:18:28 AM 41.1500 -72.5642 219° Southwest 384 442 24,000 500 Climbing Boston Center
Fri 07:19:28 AM 41.0622 -72.6575 219° Southwest 396 456 24,000  Level Boston Center
Fri 07:20:28 AM 40.9744 -72.7536 220° Southwest 408 470 24,000  Level Boston Center
Fri 07:21:28 AM 40.8783 -72.8381 214° Southwest 418 481 24,000 -382 Level Boston Center
Fri 07:23:05 AM 40.7186 -72.9561 209° Southwest 448 516 23,000 -803 Descending New York Center
Fri 07:24:05 AM 40.6194 -73.0267 208° Southwest 430 495 21,900 -1,169 Descending New York Center
Fri 07:25:03 AM 40.5242 -73.0972 209° Southwest 410 472 20,700 -942 Descending New York Center
Fri 07:26:06 AM 40.4333 -73.1625 209° Southwest 391 450 20,000 -347 Descending New York Center
Fri 07:27:04 AM 40.3425 -73.2272 209° Southwest 384 442 20,000 -712 Level New York Center
Fri 07:28:04 AM 40.2331 -73.2778 199° South 384 442 18,600 -992 Descending New York Center
Fri 07:29:05 AM 40.1325 -73.3067 192° South 379 436 18,000 -298 Descending New York Center
Fri 07:30:05 AM 40.0400 -73.3358 194° South 379 436 18,000 -99 Level New York Center
Fri 07:31:06 AM 39.9372 -73.3697 194° South 374 430 17,800 -655 Descending New York Center
Fri 07:32:04 AM 39.8742 -73.4811 234° Southwest 346 398 16,700 -1,059 Descending New York Center
Fri 07:33:05 AM 39.8194 -73.5869 236° Southwest 337 388 15,700 -992 Descending New York Center
Fri 07:34:05 AM 39.7628 -73.6900 234° Southwest 343 395 14,700 -843 Descending New York Center
Fri 07:35:06 AM 39.7189 -73.7800 238° Southwest 348 400 14,000 -440 Descending New York Center
Fri 07:35:54 AM 39.6678 -73.8744 235° Southwest 346 398 13,900 -55 Descending Washington Center
Fri 07:36:55 AM 39.6131 -73.9728 234° Southwest 346 398 13,900  Level Washington Center
Fri 07:37:53 AM 39.5581 -74.0761 235° Southwest 346 398 13,900  Level Washington Center
Fri 07:38:54 AM 39.5219 -74.1844 247° West 346 398 13,900 -295 Level Washington Center
Fri 07:39:55 AM 39.5272 -74.3028 273° West 324 373 13,300 -1,059 Descending Washington Center
Fri 07:40:53 AM 39.5283 -74.4106 271° West 318 366 11,800 -1,530 Descending Washington Center
Fri 07:42:24 AM 39.5333 -74.5667 272° West 267 307 9,500 -1,113 Descending Philadelphia TRACON
Fri 07:43:24 AM 39.5333 -74.6500 270° West 257 296 9,000 -248 Descending Philadelphia TRACON
Fri 07:44:25 AM 39.5333 -74.7500 270° West 258 297 9,000 -381 Level Philadelphia TRACON
Fri 07:45:30 AM 39.5333 -74.8500 270° West 256 295 8,200 -1,000 Descending Philadelphia TRACON
Fri 07:46:25 AM 39.5333 -74.9333 270° West 261 300 7,000 -626 Descending Philadelphia TRACON
Fri 07:47:25 AM 39.5833 -75.0000 314° West 264 304 7,000 -100 Level Philadelphia TRACON
Fri 07:48:25 AM 39.6333 -75.0500 322° Northwest 264 304 6,800 -500 Descending Philadelphia TRACON
Fri 07:49:25 AM 39.7000 -75.0500 360° North 245 282 6,000 -750 Descending Philadelphia TRACON
Fri 07:50:25 AM 39.7500 -75.0167 27° Northeast 198 228 5,300 -1,000 Descending Philadelphia TRACON
Fri 07:51:31 AM 39.8167 -75.0000 11° North 196 226 3,900 -1,143 Descending Philadelphia TRACON
Fri 07:52:31 AM 39.8500 -75.0333 322° Northwest 185 213 2,900 -857 Descending Philadelphia TRACON
Fri 07:53:37 AM 39.9000 -75.0667 333° Northwest 159 183 2,100 -727 Descending Philadelphia TRACON

Login

Don't have an account? Register now (free) for customized features, flight alerts, and more!